CYWG

Winnipeg / James Armstrong Richardson International Airport

Winnipeg, Manitoba, Canada
METAR CYWG 232200Z 32012G17KT 15SM SCT062 BKN250 14/M00 A3016 RMK SC3CI4 SLP223
Observed Flight Rules
Apr-23 @ 22:00 UTC (50 minutes ago) Visual Flight Rules
Wind Visibility Clouds
320° at 12 knots
 Gusting to 17 knots
15 miles
  • Scattered at 6,200' AGL
  • Broken at 25,000' AGL
Temperatures Readings
Current 14°C / 57°F
Dewpoint 0°C / 32°F
Humidity 39%
Altimeter 30.16" Hg
Pressure 1022.3 hPa
Elevation 239
METAR CYWG 232200Z 32012G17KT 15SM SCT062 BKN250 14/M00 A3016 RMK SC3CI4 SLP223
Observed Flight Rules
Apr-23 @ 22:00 UTC
(50 minutes ago)
VFR
Wind Visibility
320° at 12 knots
 Gusting to 17 knots
15 miles
Clouds
  • Scattered at 6,200' AGL
  • Broken at 25,000' AGL
Temperature Dewpoint
14°C / 57°F 0°C / 32°F
Humidity Altimeter Pressure
39% 30.16" Hg 1022.3 hPa